Vega Desgagnes — VOCQ — position and weather

sailwx.info

Track history (hours):
 
Tides and Currents Weather Stations Pressure Air Temp Water Temp Dewpoint Dewpoint Depression Visibility Wind Speed Wind Dir Waves Ship Positions

Vega Desgagnes

Last reported at 2014-Dec-17 23:25 UTC. Time now 2014-Dec-19 20:16 UTC.
Position N 42°28' W 080°11'.

Length 141 m; draft 6 m.

Type: Tanker. MMSI: 316003770.

Date/timePositionNaut miles runAvg speedWind from/ knotsBaromVisibWave heightAir tempDewpointWater temp
2014-Dec-17 23:25N 42°28' W 080°11'196 8.1
2014-Dec-16 23:06N 44°09' W 076°20'0 0.0
2014-Dec-16 22:33N 44°09' W 076°20'5 4.1
2014-Dec-16 21:25N 44°12' W 076°14'90 7.6
2014-Dec-16 09:32N 45°05' W 074°31'9 8.8
2014-Dec-16 08:33N 45°10' W 074°21'8 8.1
2014-Dec-16 07:33N 45°14' W 074°11'8 8.3
2014-Dec-16 06:33N 45°15' W 073°59'4 4.5
2014-Dec-16 05:33N 45°18' W 073°56'1 0.8
2014-Dec-16 04:33N 45°19' W 073°55'4 4.2
2014-Dec-16 03:32N 45°22' W 073°50'9 8.7
2014-Dec-16 02:33N 45°24' W 073°39'4 3.2
2014-Dec-16 01:17N 45°24' W 073°33'4 5.1
2014-Dec-16 00:33N 45°28' W 073°30'2 2.3
2014-Dec-15 23:33N 45°30' W 073°31'4 4.0
2014-Dec-15 22:33N 45°34' W 073°31'4 4.1
2014-Dec-15 21:33N 45°38' W 073°30'0 0.0
2014-Dec-15 20:33N 45°38' W 073°30'0 0.0
2014-Dec-15 19:33N 45°38' W 073°30'0 0.0
2014-Dec-15 18:33N 45°38' W 073°30'0 0.0
2014-Dec-15 17:33N 45°38' W 073°30'0 0.0
2014-Dec-15 16:33N 45°38' W 073°30'0 0.0
2014-Dec-15 15:30N 45°38' W 073°30'0 0.0
2014-Dec-15 14:33N 45°38' W 073°30'0 0.0
2014-Dec-15 13:33N 45°38' W 073°30'0 0.0
2014-Dec-15 12:33N 45°38' W 073°30'0 0.0
2014-Dec-15 11:33N 45°38' W 073°30'0 0.0
2014-Dec-15 10:33N 45°38' W 073°30'0 0.0
2014-Dec-15 09:33N 45°38' W 073°30'0 0.0
2014-Dec-15 08:33N 45°38' W 073°29'0 0.0
2014-Dec-15 07:33N 45°38' W 073°29'0 0.0
2014-Dec-15 06:33N 45°38' W 073°30'0 0.0
2014-Dec-15 05:33N 45°38' W 073°30'0 0.0
2014-Dec-15 04:30N 45°38' W 073°30'0 0.0
2014-Dec-15 03:30N 45°38' W 073°30'0 0.0
2014-Dec-15 02:33N 45°38' W 073°30'0 0.0
2014-Dec-15 01:30N 45°38' W 073°30'0 0.0
2014-Dec-15 00:30N 45°38' W 073°30'0 0.0
2014-Dec-14 23:30N 45°38' W 073°30'0 0.0
2014-Dec-14 22:24N 45°38' W 073°29'0 0.0
2014-Dec-14 21:30N 45°38' W 073°29'1 0.4
2014-Dec-14 18:32N 45°37' W 073°30'1 0.7
2014-Dec-14 17:33N 45°36' W 073°30'7 6.4
2014-Dec-14 16:31N 45°30' W 073°31'0 0.3
2014-Dec-14 15:33N 45°29' W 073°31'3 2.6
2014-Dec-14 14:33N 45°27' W 073°30'3 3.1
2014-Dec-14 13:31N 45°24' W 073°33'2 1.8
2014-Dec-14 12:33N 45°24' W 073°36'6 5.5
2014-Dec-14 11:33N 45°24' W 073°44'8 7.6
2014-Dec-14 10:33N 45°20' W 073°53'2 2.5
2014-Dec-14 09:33N 45°19' W 073°55'1 1.0
2014-Dec-14 08:33N 45°18' W 073°56'3 2.9
2014-Dec-14 07:33N 45°15' W 073°58'111 7.8
2014-Dec-13 17:23N 44°14' W 076°08'0 0.5
2014-Dec-13 16:34N 44°14' W 076°08'1111.4
2014-Dec-13 15:34N 44°07' W 076°21'183 6.5
2014-Dec-12 11:33N 42°29' W 079°54'  
Track history (hours):
 
Tides and Currents Weather Stations Pressure Air Temp Water Temp Dewpoint Dewpoint Depression Visibility Wind Speed Wind Dir Waves Ship Positions

Vega Desgagnes

Last reported at 2014-Dec-17 23:25 UTC. Time now 2014-Dec-19 20:16 UTC.
Position N 42°28' W 080°11'.

Length 141 m; draft 6 m.

Type: Tanker. MMSI: 316003770.

Date/timePositionNaut miles runAvg speedWind from/ knotsBaromVisibWave heightAir tempDewpointWater temp
2014-Dec-17 23:25N 42°28' W 080°11'196 8.1
2014-Dec-16 23:06N 44°09' W 076°20'0 0.0
2014-Dec-16 22:33N 44°09' W 076°20'5 4.1
2014-Dec-16 21:25N 44°12' W 076°14'90 7.6
2014-Dec-16 09:32N 45°05' W 074°31'9 8.8
2014-Dec-16 08:33N 45°10' W 074°21'8 8.1
2014-Dec-16 07:33N 45°14' W 074°11'8 8.3
2014-Dec-16 06:33N 45°15' W 073°59'4 4.5
2014-Dec-16 05:33N 45°18' W 073°56'1 0.8
2014-Dec-16 04:33N 45°19' W 073°55'4 4.2
2014-Dec-16 03:32N 45°22' W 073°50'9 8.7
2014-Dec-16 02:33N 45°24' W 073°39'4 3.2
2014-Dec-16 01:17N 45°24' W 073°33'4 5.1
2014-Dec-16 00:33N 45°28' W 073°30'2 2.3
2014-Dec-15 23:33N 45°30' W 073°31'4 4.0
2014-Dec-15 22:33N 45°34' W 073°31'4 4.1
2014-Dec-15 21:33N 45°38' W 073°30'0 0.0
2014-Dec-15 20:33N 45°38' W 073°30'0 0.0
2014-Dec-15 19:33N 45°38' W 073°30'0 0.0
2014-Dec-15 18:33N 45°38' W 073°30'0 0.0
2014-Dec-15 17:33N 45°38' W 073°30'0 0.0
2014-Dec-15 16:33N 45°38' W 073°30'0 0.0
2014-Dec-15 15:30N 45°38' W 073°30'0 0.0
2014-Dec-15 14:33N 45°38' W 073°30'0 0.0
2014-Dec-15 13:33N 45°38' W 073°30'0 0.0
2014-Dec-15 12:33N 45°38' W 073°30'0 0.0
2014-Dec-15 11:33N 45°38' W 073°30'0 0.0
2014-Dec-15 10:33N 45°38' W 073°30'0 0.0
2014-Dec-15 09:33N 45°38' W 073°30'0 0.0
2014-Dec-15 08:33N 45°38' W 073°29'0 0.0
2014-Dec-15 07:33N 45°38' W 073°29'0 0.0
2014-Dec-15 06:33N 45°38' W 073°30'0 0.0
2014-Dec-15 05:33N 45°38' W 073°30'0 0.0
2014-Dec-15 04:30N 45°38' W 073°30'0 0.0
2014-Dec-15 03:30N 45°38' W 073°30'0 0.0
2014-Dec-15 02:33N 45°38' W 073°30'0 0.0
2014-Dec-15 01:30N 45°38' W 073°30'0 0.0
2014-Dec-15 00:30N 45°38' W 073°30'0 0.0
2014-Dec-14 23:30N 45°38' W 073°30'0 0.0
2014-Dec-14 22:24N 45°38' W 073°29'0 0.0
2014-Dec-14 21:30N 45°38' W 073°29'1 0.4
2014-Dec-14 18:32N 45°37' W 073°30'1 0.7
2014-Dec-14 17:33N 45°36' W 073°30'7 6.4
2014-Dec-14 16:31N 45°30' W 073°31'0 0.3
2014-Dec-14 15:33N 45°29' W 073°31'3 2.6
2014-Dec-14 14:33N 45°27' W 073°30'3 3.1
2014-Dec-14 13:31N 45°24' W 073°33'2 1.8
2014-Dec-14 12:33N 45°24' W 073°36'6 5.5
2014-Dec-14 11:33N 45°24' W 073°44'8 7.6
2014-Dec-14 10:33N 45°20' W 073°53'2 2.5
2014-Dec-14 09:33N 45°19' W 073°55'1 1.0
2014-Dec-14 08:33N 45°18' W 073°56'3 2.9
2014-Dec-14 07:33N 45°15' W 073°58'111 7.8
2014-Dec-13 17:23N 44°14' W 076°08'0 0.5
2014-Dec-13 16:34N 44°14' W 076°08'1111.4
2014-Dec-13 15:34N 44°07' W 076°21'183 6.5
2014-Dec-12 11:33N 42°29' W 079°54'  

Dump ship's entire track history